createdAt,value
2023-02-16T00:01:06.152Z,42.80
2023-02-16T00:05:26.747Z,43.60
2023-02-16T00:09:27.909Z,43.67
2023-02-16T00:13:45.108Z,47.43
2023-02-16T00:17:45.720Z,43.90
2023-02-16T00:21:49.113Z,43.77
2023-02-16T00:25:49.577Z,43.67
2023-02-16T00:29:49.879Z,45.23
2023-02-16T00:33:51.286Z,42.70
2023-02-16T00:37:56.314Z,44.90
2023-02-16T00:42:00.685Z,45.73
2023-02-16T00:46:01.162Z,44.43
2023-02-16T00:50:04.338Z,46.03
2023-02-16T00:54:07.725Z,45.60
2023-02-16T00:58:18.214Z,44.13
2023-02-16T01:02:19.180Z,46.13
2023-02-16T01:06:31.849Z,51.50
2023-02-16T01:10:48.383Z,43.37
2023-02-16T01:14:54.160Z,44.77
2023-02-16T01:18:57.330Z,43.57
2023-02-16T01:22:57.881Z,45.67
2023-02-16T01:27:01.008Z,42.40
2023-02-16T01:31:01.452Z,42.47
2023-02-16T01:35:02.004Z,46.87
2023-02-16T01:39:03.949Z,43.80
2023-02-16T01:43:20.252Z,45.87
2023-02-16T01:47:43.118Z,44.63
2023-02-16T01:51:58.615Z,43.97
2023-02-16T01:56:07.415Z,46.57
2023-02-16T02:00:26.985Z,49.53
2023-02-16T02:04:48.861Z,46.40
2023-02-16T02:08:54.822Z,48.07
2023-02-16T02:13:04.417Z,48.70
2023-02-16T02:17:12.663Z,50.23
2023-02-16T02:21:55.636Z,52.80
2023-02-16T02:26:47.101Z,46.87
2023-02-16T02:31:06.144Z,45.93
2023-02-16T02:35:31.941Z,47.83
2023-02-16T02:39:48.286Z,50.43
2023-02-16T02:43:57.429Z,55.93
2023-02-16T02:48:02.291Z,49.40
2023-02-16T02:52:03.492Z,48.43
2023-02-16T02:56:18.660Z,50.37
2023-02-16T03:00:39.613Z,48.40
2023-02-16T03:04:44.088Z,47.13
2023-02-16T03:08:57.825Z,51.33
2023-02-16T03:12:57.894Z,52.77
2023-02-16T03:17:14.935Z,52.10
2023-02-16T03:21:31.655Z,50.47
2023-02-16T03:25:49.948Z,52.00
2023-02-16T03:29:54.788Z,51.53
2023-02-16T03:33:56.238Z,52.57
2023-02-16T03:37:59.258Z,51.43
2023-02-16T03:42:01.721Z,49.53
2023-02-16T03:46:02.274Z,53.33
2023-02-16T03:50:02.683Z,51.20
2023-02-16T03:54:05.822Z,62.00
2023-02-16T03:58:07.217Z,53.37
2023-02-16T04:02:07.868Z,55.67
2023-02-16T04:06:09.129Z,55.23
2023-02-16T04:10:13.595Z,55.27
2023-02-16T04:14:14.080Z,56.80
2023-02-16T04:18:14.549Z,58.60
2023-02-16T04:22:15.060Z,67.83
2023-02-16T04:26:18.518Z,57.00
2023-02-16T04:30:22.456Z,55.90
2023-02-16T04:34:23.150Z,60.20
2023-02-16T04:38:23.677Z,52.53
2023-02-16T04:42:29.254Z,58.03
2023-02-16T04:46:30.634Z,56.93
2023-02-16T04:50:31.846Z,57.50
2023-02-16T04:54:32.658Z,55.50
2023-02-16T04:58:35.982Z,53.00
2023-02-16T05:02:36.656Z,58.00
2023-02-16T05:06:37.077Z,63.47
2023-02-16T05:10:37.683Z,56.73
2023-02-16T05:14:45.903Z,55.00
2023-02-16T05:18:46.657Z,57.67
2023-02-16T05:22:47.056Z,60.70
2023-02-16T05:26:47.912Z,53.00
2023-02-16T05:30:51.543Z,69.33
2023-02-16T05:34:51.767Z,56.57
2023-02-16T05:38:52.569Z,48.90
2023-02-16T05:42:56.389Z,53.80
2023-02-16T05:46:59.820Z,57.77
2023-02-16T05:51:00.038Z,55.27
2023-02-16T05:55:00.377Z,55.57
2023-02-16T05:59:03.741Z,54.17
2023-02-16T06:03:07.042Z,57.70
2023-02-16T06:07:08.458Z,60.33
2023-02-16T06:11:30.917Z,57.60
2023-02-16T06:15:32.170Z,58.20
2023-02-16T06:19:38.051Z,59.10
2023-02-16T06:23:38.926Z,57.17
2023-02-16T06:27:39.378Z,51.47
2023-02-16T06:31:43.250Z,57.17
2023-02-16T06:35:47.202Z,60.40
2023-02-16T06:39:48.137Z,57.17
2023-02-16T06:43:48.607Z,59.23
2023-02-16T06:47:49.476Z,59.37
2023-02-16T06:51:53.247Z,55.43
2023-02-16T06:55:55.168Z,54.63
2023-02-16T06:59:56.481Z,56.60
2023-02-16T07:03:59.893Z,51.83
2023-02-16T07:08:02.880Z,49.53
2023-02-16T07:12:03.135Z,57.07
2023-02-16T07:16:03.359Z,54.97
2023-02-16T07:20:04.467Z,50.50
2023-02-16T07:24:08.376Z,49.50
2023-02-16T07:28:09.830Z,49.73
2023-02-16T07:32:10.673Z,47.37
2023-02-16T07:36:13.486Z,51.20
2023-02-16T07:40:17.462Z,52.23
2023-02-16T07:44:18.045Z,52.40
2023-02-16T07:48:20.265Z,47.40
2023-02-16T07:52:20.509Z,47.57
2023-02-16T07:56:29.730Z,45.63
2023-02-16T08:00:30.355Z,47.53
2023-02-16T08:04:30.832Z,48.63
2023-02-16T08:08:32.080Z,44.27
2023-02-16T08:12:37.893Z,43.43
2023-02-16T08:16:38.439Z,46.53
2023-02-16T08:20:57.705Z,46.43
2023-02-16T08:25:00.219Z,41.53
2023-02-16T08:29:03.905Z,40.53
2023-02-16T08:33:04.425Z,40.47
2023-02-16T08:37:04.843Z,39.53
2023-02-16T08:41:05.661Z,41.83
2023-02-16T08:45:10.118Z,45.10
2023-02-16T08:49:12.251Z,47.37
2023-02-16T08:53:12.576Z,39.50
2023-02-16T08:57:13.551Z,40.13
2023-02-16T09:01:18.422Z,48.67
2023-02-16T09:05:19.268Z,40.00
2023-02-16T09:09:20.788Z,32.63
2023-02-16T09:13:21.064Z,32.67
2023-02-16T09:17:23.958Z,32.83
2023-02-16T09:21:28.780Z,37.80
2023-02-16T09:25:29.078Z,34.57
2023-02-16T09:29:29.545Z,34.23
2023-02-16T09:33:32.723Z,35.30
2023-02-16T09:37:33.181Z,37.50
2023-02-16T09:41:58.198Z,35.20
2023-02-16T09:46:01.232Z,33.67
2023-02-16T09:50:15.721Z,33.83
2023-02-16T09:54:43.964Z,34.63
2023-02-16T09:58:51.802Z,30.93
2023-02-16T10:02:58.293Z,34.00
2023-02-16T10:07:20.592Z,29.93
2023-02-16T10:11:46.907Z,30.30
2023-02-16T10:15:49.855Z,29.67
2023-02-16T10:19:55.952Z,31.37
2023-02-16T10:24:05.848Z,32.40
2023-02-16T10:28:22.774Z,31.17
2023-02-16T10:32:31.013Z,30.10
2023-02-16T10:36:44.182Z,31.67
2023-02-16T10:41:02.576Z,29.80
2023-02-16T10:45:18.245Z,27.17
2023-02-16T10:49:21.187Z,30.30
2023-02-16T10:53:32.353Z,29.23
2023-02-16T10:57:37.806Z,32.10
2023-02-16T11:01:42.622Z,28.83
2023-02-16T11:05:45.381Z,29.87
2023-02-16T11:09:49.672Z,29.37
2023-02-16T11:14:02.846Z,30.87
2023-02-16T11:18:09.496Z,31.17
2023-02-16T11:22:26.900Z,29.47
2023-02-16T11:26:30.545Z,30.20
2023-02-16T11:30:41.701Z,29.90
2023-02-16T11:34:49.106Z,29.17
2023-02-16T11:39:01.954Z,28.77
2023-02-16T11:43:06.124Z,29.73
2023-02-16T11:47:24.387Z,28.20
2023-02-16T11:51:37.606Z,29.27
2023-02-16T11:55:43.293Z,30.88
2023-02-16T11:59:43.976Z,32.67
2023-02-16T12:04:29.176Z,32.53
2023-02-16T12:08:52.242Z,32.00
2023-02-16T12:13:07.219Z,31.10
2023-02-16T12:17:29.295Z,33.35
2023-02-16T12:21:45.432Z,30.85
2023-02-16T12:26:03.780Z,32.33
2023-02-16T12:30:23.803Z,32.33
2023-02-16T12:34:39.757Z,28.83
2023-02-16T12:38:59.005Z,33.17
2023-02-16T12:43:36.456Z,32.08
2023-02-16T12:47:44.467Z,32.90
2023-02-16T12:51:53.532Z,31.60
2023-02-16T12:56:03.508Z,33.75
2023-02-16T13:00:20.846Z,33.20
2023-02-16T13:04:29.552Z,33.75
2023-02-16T13:08:40.208Z,35.13
2023-02-16T13:12:53.251Z,43.13
2023-02-16T13:17:00.589Z,36.47
2023-02-16T13:21:11.186Z,35.58
2023-02-16T13:25:51.340Z,36.92
2023-02-16T13:30:43.993Z,40.67
2023-02-16T13:35:48.125Z,37.35
2023-02-16T13:40:27.711Z,38.80
2023-02-16T13:44:35.253Z,35.25
2023-02-16T13:48:50.142Z,37.25
2023-02-16T13:52:52.614Z,41.00
2023-02-16T13:56:53.317Z,39.28
2023-02-16T14:00:53.891Z,39.03
2023-02-16T14:05:13.873Z,38.33
2023-02-16T14:09:49.778Z,42.72
2023-02-16T14:13:53.701Z,44.28
2023-02-16T14:17:56.923Z,38.70
2023-02-16T14:21:59.969Z,44.65
2023-02-16T14:26:07.317Z,41.88
2023-02-16T14:30:21.986Z,44.53
2023-02-16T14:34:30.893Z,43.83
2023-02-16T14:38:38.654Z,46.80
2023-02-16T14:42:40.091Z,45.03
2023-02-16T14:46:55.370Z,49.70
2023-02-16T14:51:31.829Z,48.70
2023-02-16T14:56:28.471Z,46.33
2023-02-16T15:00:39.838Z,47.37
2023-02-16T15:04:41.124Z,50.97
2023-02-16T15:08:49.495Z,49.37
2023-02-16T15:12:52.557Z,50.73
2023-02-16T15:16:54.626Z,52.27
2023-02-16T15:21:00.854Z,55.60
2023-02-16T15:25:04.319Z,56.37
2023-02-16T15:29:27.089Z,54.93
2023-02-16T15:33:38.428Z,55.57
2023-02-16T15:37:40.626Z,57.73
2023-02-16T15:41:46.107Z,64.63
2023-02-16T15:45:53.213Z,66.70
2023-02-16T15:49:55.321Z,74.53
2023-02-16T15:53:59.386Z,69.23
2023-02-16T15:58:01.969Z,70.93
2023-02-16T16:02:16.413Z,72.73
2023-02-16T16:06:17.504Z,79.80
2023-02-16T16:10:24.975Z,74.93
2023-02-16T16:14:27.985Z,71.07
2023-02-16T16:18:59.160Z,76.83
2023-02-16T16:23:02.831Z,69.67
2023-02-16T16:27:08.658Z,69.20
2023-02-16T16:31:15.090Z,77.90
2023-02-16T16:35:40.142Z,84.87
2023-02-16T16:39:43.796Z,83.37
2023-02-16T16:43:57.990Z,74.73
2023-02-16T16:47:59.105Z,72.67
2023-02-16T16:52:04.159Z,80.67
2023-02-16T16:56:06.525Z,78.33
2023-02-16T17:00:13.296Z,76.63
2023-02-16T17:04:13.677Z,67.87
2023-02-16T17:08:16.722Z,71.17
2023-02-16T17:12:17.268Z,78.27
2023-02-16T17:16:26.753Z,89.03
2023-02-16T17:20:27.701Z,93.20
2023-02-16T17:24:31.004Z,76.03
2023-02-16T17:28:36.743Z,81.53
2023-02-16T17:32:38.409Z,87.00
2023-02-16T17:36:40.490Z,79.30
2023-02-16T17:40:45.099Z,83.33
2023-02-16T17:44:46.045Z,80.03
2023-02-16T17:48:46.719Z,78.97
2023-02-16T17:52:48.407Z,78.40
2023-02-16T17:56:51.995Z,75.43
2023-02-16T18:00:52.800Z,81.60
2023-02-16T18:04:54.446Z,84.00
2023-02-16T18:08:57.033Z,83.83
2023-02-16T18:12:59.951Z,99.97
2023-02-16T18:17:02.195Z,88.27
2023-02-16T18:21:03.083Z,97.97
2023-02-16T18:25:03.696Z,96.47
2023-02-16T18:29:10.449Z,106.90
2023-02-16T18:33:11.425Z,128.07
2023-02-16T18:37:15.074Z,104.17
2023-02-16T18:41:16.404Z,98.93
2023-02-16T18:45:22.466Z,101.60
2023-02-16T18:49:23.325Z,99.67
2023-02-16T18:53:24.125Z,108.67
2023-02-16T18:57:24.627Z,100.77
2023-02-16T19:01:43.500Z,92.20
2023-02-16T19:05:46.364Z,126.67
2023-02-16T19:09:46.877Z,96.73
2023-02-16T19:13:49.136Z,94.17
2023-02-16T19:17:57.077Z,89.57
2023-02-16T19:21:58.193Z,90.67
2023-02-16T19:25:59.021Z,89.53
2023-02-16T19:30:00.059Z,98.53
2023-02-16T19:34:03.694Z,104.47
2023-02-16T19:38:04.231Z,88.90
2023-02-16T19:42:05.047Z,118.90
2023-02-16T19:46:05.874Z,102.30
2023-02-16T19:50:12.908Z,174.17
2023-02-16T19:54:14.306Z,93.47
2023-02-16T19:58:16.128Z,111.97
2023-02-16T20:02:18.605Z,87.00
2023-02-16T20:06:24.552Z,114.30
2023-02-16T20:10:25.579Z,76.80
2023-02-16T20:14:25.938Z,85.53
2023-02-16T20:18:26.492Z,81.67
2023-02-16T20:22:30.948Z,84.17
2023-02-16T20:26:34.708Z,75.13
2023-02-16T20:30:35.051Z,88.20
2023-02-16T20:34:35.733Z,130.40
2023-02-16T20:38:39.398Z,105.37
2023-02-16T20:42:41.113Z,87.50
2023-02-16T20:46:42.965Z,77.53
2023-02-16T20:50:43.745Z,83.07
2023-02-16T20:54:46.890Z,83.47
2023-02-16T20:58:49.724Z,79.20
2023-02-16T21:02:50.253Z,78.83
2023-02-16T21:06:51.117Z,80.23
2023-02-16T21:10:54.513Z,83.03
2023-02-16T21:14:54.819Z,77.43
2023-02-16T21:18:57.753Z,77.57
2023-02-16T21:22:58.141Z,73.17
2023-02-16T21:27:01.609Z,76.30
2023-02-16T21:31:15.546Z,78.47
2023-02-16T21:35:16.105Z,71.87
2023-02-16T21:39:16.717Z,69.20
2023-02-16T21:43:20.114Z,71.03
2023-02-16T21:47:33.132Z,63.40
2023-02-16T21:51:37.676Z,67.83
2023-02-16T21:55:52.804Z,67.77
2023-02-16T21:59:57.759Z,66.53
2023-02-16T22:04:00.489Z,70.57
2023-02-16T22:08:01.505Z,66.27
2023-02-16T22:12:01.975Z,64.77
2023-02-16T22:16:14.967Z,62.60
2023-02-16T22:20:16.526Z,65.37
2023-02-16T22:24:20.098Z,60.63
2023-02-16T22:28:20.694Z,62.80
2023-02-16T22:32:23.891Z,63.90
2023-02-16T22:36:24.406Z,60.53
2023-02-16T22:40:25.182Z,62.40
2023-02-16T22:44:28.418Z,58.97
2023-02-16T22:48:31.779Z,59.97
2023-02-16T22:52:32.656Z,56.83
2023-02-16T22:56:35.354Z,50.53
2023-02-16T23:00:35.597Z,54.97
2023-02-16T23:04:38.619Z,52.27
2023-02-16T23:08:40.678Z,52.27
2023-02-16T23:12:41.443Z,47.20
2023-02-16T23:16:41.998Z,49.37
2023-02-16T23:20:45.425Z,53.13
2023-02-16T23:25:06.158Z,50.30
2023-02-16T23:29:07.470Z,49.43
2023-02-16T23:33:07.751Z,47.97
2023-02-16T23:37:10.850Z,50.07
2023-02-16T23:41:19.404Z,48.03
2023-02-16T23:45:20.131Z,52.53
2023-02-16T23:49:20.528Z,53.83
2023-02-16T23:53:27.994Z,55.83
2023-02-16T23:57:28.330Z,50.13
